createdAt,value
2019-03-04T00:01:13.348Z,6.82
2019-03-04T00:03:43.589Z,7.03
2019-03-04T00:06:13.762Z,7.20
2019-03-04T00:08:44.253Z,7.23
2019-03-04T00:11:14.449Z,7.45
2019-03-04T00:13:44.584Z,7.52
2019-03-04T00:16:14.676Z,7.56
2019-03-04T00:18:44.854Z,7.57
2019-03-04T00:21:15.181Z,7.62
2019-03-04T00:23:46.619Z,7.60
2019-03-04T00:26:16.813Z,7.60
2019-03-04T00:28:46.957Z,7.66
2019-03-04T00:31:17.067Z,7.66
2019-03-04T00:33:47.632Z,7.67
2019-03-04T00:36:17.772Z,7.66
2019-03-04T00:38:47.875Z,7.69
2019-03-04T00:41:17.997Z,7.68
2019-03-04T00:43:48.108Z,7.65
2019-03-04T00:46:18.269Z,7.69
2019-03-04T00:48:48.657Z,7.77
2019-03-04T00:51:18.819Z,8.10
2019-03-04T00:53:48.980Z,8.51
2019-03-04T00:56:19.513Z,8.41
2019-03-04T00:58:50.147Z,8.46
2019-03-04T01:01:20.520Z,8.59
2019-03-04T01:03:50.663Z,8.53
2019-03-04T01:06:20.804Z,8.68
2019-03-04T01:08:51.471Z,8.68
2019-03-04T01:11:21.621Z,8.55
2019-03-04T01:13:51.701Z,8.79
2019-03-04T01:16:21.946Z,8.74
2019-03-04T01:18:52.034Z,8.76
2019-03-04T01:21:22.954Z,8.83
2019-03-04T01:23:53.407Z,8.91
2019-03-04T01:26:23.497Z,8.67
2019-03-04T01:28:53.614Z,8.67
2019-03-04T01:31:23.817Z,8.73
2019-03-04T01:33:53.946Z,8.47
2019-03-04T01:36:24.252Z,8.47
2019-03-04T01:38:54.706Z,8.49
2019-03-04T01:41:24.840Z,8.45
2019-03-04T01:43:54.939Z,8.50
2019-03-04T01:46:25.056Z,8.45
2019-03-04T01:48:55.225Z,8.43
2019-03-04T01:51:25.356Z,8.47
2019-03-04T01:53:55.806Z,8.53
2019-03-04T01:56:25.900Z,8.58
2019-03-04T01:58:56.088Z,8.46
2019-03-04T02:01:27.551Z,8.51
2019-03-04T02:03:57.791Z,8.61
2019-03-04T02:06:28.297Z,8.63
2019-03-04T02:08:59.512Z,8.75
2019-03-04T02:11:29.652Z,8.60
2019-03-04T02:13:59.888Z,8.54
2019-03-04T02:16:30.712Z,8.52
2019-03-04T02:19:00.836Z,8.53
2019-03-04T02:21:30.991Z,8.49
2019-03-04T02:24:21.100Z,8.51
2019-03-04T02:26:51.307Z,8.58
2019-03-04T02:29:21.494Z,8.65
2019-03-04T02:31:52.099Z,8.62
2019-03-04T02:34:22.166Z,8.57
2019-03-04T02:36:52.252Z,8.47
2019-03-04T02:39:22.537Z,8.35
2019-03-04T02:41:52.954Z,8.20
2019-03-04T02:44:23.140Z,8.05
2019-03-04T02:46:53.274Z,8.00
2019-03-04T02:49:23.408Z,8.00
2019-03-04T02:51:53.513Z,7.88
2019-03-04T02:54:24.352Z,7.78
2019-03-04T02:56:55.744Z,7.63
2019-03-04T02:59:25.819Z,7.52
2019-03-04T03:01:56.163Z,7.43
2019-03-04T03:04:26.303Z,7.38
2019-03-04T03:06:56.468Z,7.39
2019-03-04T03:09:27.344Z,7.30
2019-03-04T03:12:00.177Z,7.33
2019-03-04T03:14:30.289Z,7.16
2019-03-04T03:17:00.376Z,7.20
2019-03-04T03:19:30.539Z,7.31
2019-03-04T03:22:01.079Z,7.38
2019-03-04T03:24:31.607Z,7.35
2019-03-04T03:27:01.753Z,7.29
2019-03-04T03:29:31.864Z,7.26
2019-03-04T03:32:02.029Z,7.24
2019-03-04T03:34:32.121Z,7.18
2019-03-04T03:37:02.725Z,7.12
2019-03-04T03:39:32.947Z,7.10
2019-03-04T03:42:03.155Z,7.11
2019-03-04T03:44:33.215Z,7.02
2019-03-04T03:47:03.833Z,7.08
2019-03-04T03:49:33.943Z,7.09
2019-03-04T03:52:04.081Z,7.10
2019-03-04T03:54:34.549Z,6.99
2019-03-04T03:57:05.287Z,6.88
2019-03-04T03:59:35.465Z,6.78
2019-03-04T04:02:05.621Z,6.80
2019-03-04T04:04:38.559Z,6.80
2019-03-04T04:07:08.745Z,6.73
2019-03-04T04:09:39.663Z,6.75
2019-03-04T04:12:09.765Z,6.80
2019-03-04T04:14:39.876Z,6.85
2019-03-04T04:17:10.046Z,6.96
2019-03-04T04:19:40.657Z,6.89
2019-03-04T04:22:10.837Z,6.97
2019-03-04T04:24:41.114Z,7.02
2019-03-04T04:27:11.278Z,7.10
2019-03-04T04:29:41.506Z,7.16
2019-03-04T04:32:11.647Z,7.16
2019-03-04T04:34:42.208Z,7.15
2019-03-04T04:37:12.359Z,7.13
2019-03-04T04:39:42.505Z,7.29
2019-03-04T04:42:12.622Z,7.40
2019-03-04T04:44:42.723Z,7.46
2019-03-04T04:47:15.426Z,7.49
2019-03-04T04:49:45.599Z,7.54
2019-03-04T04:52:15.731Z,7.45
2019-03-04T04:54:45.939Z,7.38
2019-03-04T04:57:18.464Z,7.37
2019-03-04T04:59:48.615Z,7.49
2019-03-04T05:02:18.758Z,7.65
2019-03-04T05:04:49.022Z,7.76
2019-03-04T05:07:19.747Z,7.98
2019-03-04T05:09:49.909Z,7.94
2019-03-04T05:12:20.018Z,7.90
2019-03-04T05:14:50.147Z,7.92
2019-03-04T05:17:20.488Z,7.93
2019-03-04T05:19:50.633Z,8.02
2019-03-04T05:22:22.117Z,8.06
2019-03-04T05:24:52.256Z,8.06
2019-03-04T05:27:22.663Z,8.04
2019-03-04T05:29:52.930Z,8.04
2019-03-04T05:32:24.693Z,8.07
2019-03-04T05:34:54.931Z,8.07
2019-03-04T05:37:25.139Z,7.94
2019-03-04T05:39:55.334Z,7.83
2019-03-04T05:42:25.519Z,7.84
2019-03-04T05:44:55.620Z,7.76
2019-03-04T05:47:25.838Z,7.69
2019-03-04T05:49:55.940Z,7.62
2019-03-04T05:52:26.123Z,7.58
2019-03-04T05:54:56.665Z,7.57
2019-03-04T05:57:26.785Z,7.63
2019-03-04T05:59:56.964Z,7.55
2019-03-04T06:02:27.177Z,7.40
2019-03-04T06:04:57.317Z,7.33
2019-03-04T06:07:40.811Z,7.23
2019-03-04T06:10:12.879Z,7.20
2019-03-04T06:12:43.141Z,7.37
2019-03-04T06:15:18.146Z,7.30
2019-03-04T06:17:48.305Z,7.31
2019-03-04T06:20:19.075Z,7.32
2019-03-04T06:22:49.446Z,7.28
2019-03-04T06:25:22.255Z,7.23
2019-03-04T06:27:52.443Z,7.23
2019-03-04T06:30:23.603Z,7.18
2019-03-04T06:32:53.744Z,7.12
2019-03-04T06:35:24.298Z,7.12
2019-03-04T06:37:54.621Z,7.08
2019-03-04T06:40:28.020Z,7.04
2019-03-04T06:42:58.227Z,7.03
2019-03-04T06:45:29.823Z,7.02
2019-03-04T06:48:00.084Z,7.05
2019-03-04T06:50:55.162Z,7.10
2019-03-04T06:54:12.249Z,7.09
2019-03-04T06:56:54.559Z,7.26
2019-03-04T06:59:58.978Z,7.36
2019-03-04T07:02:29.492Z,7.37
2019-03-04T07:05:35.623Z,7.46
2019-03-04T07:08:05.782Z,7.52
2019-03-04T07:10:37.296Z,7.69
2019-03-04T07:13:10.807Z,7.74
2019-03-04T07:15:40.986Z,7.75
2019-03-04T07:18:11.574Z,7.77
2019-03-04T07:20:41.968Z,7.86
2019-03-04T07:23:12.147Z,7.87
2019-03-04T07:25:42.536Z,8.08
2019-03-04T07:28:13.916Z,8.24
2019-03-04T07:30:44.074Z,8.37
2019-03-04T07:33:16.712Z,8.33
2019-03-04T07:35:46.369Z,8.39
2019-03-04T07:38:41.038Z,8.57
2019-03-04T07:41:11.144Z,8.74
2019-03-04T07:43:41.230Z,9.43
2019-03-04T07:46:11.689Z,9.51
2019-03-04T07:48:41.884Z,9.72
2019-03-04T07:51:14.068Z,9.78
2019-03-04T07:53:46.667Z,10.20
2019-03-04T07:56:16.363Z,10.73
2019-03-04T07:58:46.692Z,11.68
2019-03-04T08:01:16.885Z,12.19
2019-03-04T08:03:47.057Z,12.34
2019-03-04T08:06:17.675Z,12.36
2019-03-04T08:09:12.100Z,12.34
2019-03-04T08:12:25.744Z,12.54
2019-03-04T08:14:55.936Z,12.86
2019-03-04T08:17:26.366Z,12.95
2019-03-04T08:19:56.533Z,12.88
2019-03-04T08:22:27.098Z,12.62
2019-03-04T08:24:57.180Z,12.32
2019-03-04T08:27:27.610Z,11.81
2019-03-04T08:29:57.778Z,11.18
2019-03-04T08:32:27.910Z,11.10
2019-03-04T08:34:58.267Z,11.04
2019-03-04T08:37:28.499Z,11.13
2019-03-04T08:39:58.827Z,10.76
2019-03-04T08:42:29.274Z,10.55
2019-03-04T08:44:59.628Z,10.29
2019-03-04T08:47:29.753Z,9.63
2019-03-04T08:49:59.901Z,9.25
2019-03-04T08:52:30.090Z,9.12
2019-03-04T08:55:05.860Z,9.23
2019-03-04T08:57:37.295Z,9.29
2019-03-04T09:00:10.729Z,9.52
2019-03-04T09:02:42.424Z,9.62
2019-03-04T09:05:13.281Z,9.73
2019-03-04T09:07:43.443Z,9.94
2019-03-04T09:10:18.117Z,10.12
2019-03-04T09:12:49.775Z,10.28
2019-03-04T09:15:20.022Z,10.59
2019-03-04T09:17:50.180Z,10.94
2019-03-04T09:20:21.266Z,11.19
2019-03-04T09:22:51.407Z,11.15
2019-03-04T09:25:30.991Z,10.87
2019-03-04T09:28:01.129Z,10.69
2019-03-04T09:30:31.461Z,10.61
2019-03-04T09:33:01.580Z,10.58
2019-03-04T09:35:34.763Z,10.67
2019-03-04T09:38:05.611Z,10.68
2019-03-04T09:40:36.116Z,10.75
2019-03-04T09:43:06.493Z,10.87
2019-03-04T09:45:39.201Z,10.94
2019-03-04T09:48:08.718Z,11.06
2019-03-04T09:50:42.759Z,11.09
2019-03-04T09:53:12.888Z,11.34
2019-03-04T09:55:43.087Z,11.48
2019-03-04T09:58:13.553Z,11.53
2019-03-04T10:00:51.014Z,11.57
2019-03-04T10:04:09.349Z,11.65
2019-03-04T10:07:20.673Z,11.89
2019-03-04T10:10:40.662Z,11.78
2019-03-04T10:13:37.461Z,11.77
2019-03-04T10:16:20.755Z,11.53
2019-03-04T10:19:46.781Z,11.30
2019-03-04T10:22:38.146Z,11.22
2019-03-04T10:25:36.199Z,11.20
2019-03-04T10:28:27.231Z,11.19
2019-03-04T10:32:02.497Z,11.09
2019-03-04T10:35:11.957Z,11.11
2019-03-04T10:38:06.580Z,10.97
2019-03-04T10:40:58.120Z,10.88
2019-03-04T10:43:53.050Z,10.89
2019-03-04T10:46:50.905Z,10.88
2019-03-04T10:49:21.099Z,10.73
2019-03-04T10:51:51.261Z,10.70
2019-03-04T10:54:22.282Z,10.68
2019-03-04T10:56:52.463Z,10.64
2019-03-04T10:59:22.559Z,10.67
2019-03-04T11:01:52.723Z,10.64
2019-03-04T11:04:22.848Z,10.63
2019-03-04T11:06:54.745Z,10.54
2019-03-04T11:09:27.033Z,10.51
2019-03-04T11:11:57.479Z,10.49
2019-03-04T11:14:27.660Z,10.43
2019-03-04T11:16:57.809Z,10.55
2019-03-04T11:19:28.031Z,10.46
2019-03-04T11:21:58.446Z,10.49
2019-03-04T11:24:28.968Z,10.52
2019-03-04T11:26:59.161Z,10.54
2019-03-04T11:29:29.353Z,10.46
2019-03-04T11:31:59.849Z,10.43
2019-03-04T11:34:30.057Z,10.40
2019-03-04T11:37:00.161Z,10.33
2019-03-04T11:40:02.930Z,10.37
2019-03-04T11:42:33.507Z,10.31
2019-03-04T11:45:03.929Z,10.31
2019-03-04T11:47:35.083Z,10.31
2019-03-04T11:50:07.807Z,10.37
2019-03-04T11:52:41.101Z,10.43
2019-03-04T11:55:11.744Z,10.43
2019-03-04T11:57:41.830Z,10.36
2019-03-04T12:00:28.938Z,10.41
2019-03-04T12:02:59.074Z,10.45
2019-03-04T12:05:29.259Z,10.50
2019-03-04T12:07:59.755Z,10.43
2019-03-04T12:10:29.926Z,10.47
2019-03-04T12:13:00.048Z,10.45
2019-03-04T12:15:30.273Z,10.48
2019-03-04T12:18:00.495Z,10.45
2019-03-04T12:20:30.727Z,10.41
2019-03-04T12:23:02.146Z,10.36
2019-03-04T12:25:32.917Z,10.42
2019-03-04T12:28:03.068Z,10.45
2019-03-04T12:30:33.336Z,10.45
2019-03-04T12:33:03.476Z,10.42
2019-03-04T12:35:33.768Z,10.42
2019-03-04T12:38:04.273Z,10.40
2019-03-04T12:40:34.485Z,10.44
2019-03-04T12:43:04.923Z,10.57
2019-03-04T12:45:35.504Z,10.67
2019-03-04T12:48:05.835Z,10.72
2019-03-04T12:50:36.253Z,10.80
2019-03-04T12:53:06.823Z,10.81
2019-03-04T12:55:37.131Z,10.77
2019-03-04T12:58:07.250Z,10.86
2019-03-04T13:00:37.815Z,11.00
2019-03-04T13:03:09.914Z,11.18
2019-03-04T13:05:40.774Z,11.58
2019-03-04T13:08:11.251Z,12.45
2019-03-04T13:10:41.801Z,12.64
2019-03-04T13:13:11.992Z,12.51
2019-03-04T13:15:42.261Z,12.33
2019-03-04T13:18:12.825Z,12.21
2019-03-04T13:20:43.340Z,12.17
2019-03-04T13:23:13.679Z,12.37
2019-03-04T13:25:43.785Z,12.56
2019-03-04T13:28:14.350Z,12.59
2019-03-04T13:30:45.772Z,13.29
2019-03-04T13:33:15.850Z,13.70
2019-03-04T13:35:46.179Z,13.72
2019-03-04T13:38:17.529Z,13.16
2019-03-04T13:40:47.680Z,13.40
2019-03-04T13:43:19.585Z,13.73
2019-03-04T13:45:52.865Z,13.52
2019-03-04T13:48:22.999Z,13.38
2019-03-04T13:50:53.436Z,13.26
2019-03-04T13:53:23.732Z,13.32
2019-03-04T13:55:53.844Z,13.28
2019-03-04T13:58:24.000Z,13.28
2019-03-04T14:00:55.823Z,13.25
2019-03-04T14:03:25.975Z,13.42
2019-03-04T14:05:56.138Z,13.51
2019-03-04T14:08:26.298Z,13.36
2019-03-04T14:10:56.409Z,13.33
2019-03-04T14:13:26.700Z,13.51
2019-03-04T14:15:57.142Z,13.86
2019-03-04T14:18:27.357Z,14.31
2019-03-04T14:20:57.503Z,14.93
2019-03-04T14:23:27.676Z,15.14
2019-03-04T14:25:57.851Z,15.05
2019-03-04T14:28:28.514Z,14.69
2019-03-04T14:30:59.996Z,14.60
2019-03-04T14:33:30.875Z,14.52
2019-03-04T14:36:01.062Z,14.91
2019-03-04T14:38:31.312Z,14.78
2019-03-04T14:41:01.553Z,15.17
2019-03-04T14:43:32.407Z,14.98
2019-03-04T14:46:03.011Z,14.47
2019-03-04T14:48:33.155Z,14.32
2019-03-04T14:51:03.389Z,14.18
2019-03-04T14:53:35.164Z,14.13
2019-03-04T14:56:05.305Z,14.36
2019-03-04T14:58:35.405Z,14.49
2019-03-04T15:01:06.085Z,15.12
2019-03-04T15:03:36.423Z,14.35
2019-03-04T15:06:07.359Z,13.24
2019-03-04T15:08:37.629Z,13.14
2019-03-04T15:11:07.815Z,13.09
2019-03-04T15:13:38.135Z,13.83
2019-03-04T15:16:09.275Z,14.70
2019-03-04T15:18:39.530Z,15.31
2019-03-04T15:21:09.781Z,13.82
2019-03-04T15:23:40.050Z,12.96
2019-03-04T15:26:10.259Z,13.37
2019-03-04T15:28:40.660Z,13.57
2019-03-04T15:31:10.819Z,12.87
2019-03-04T15:33:42.327Z,12.42
2019-03-04T15:36:13.131Z,11.89
2019-03-04T15:38:43.273Z,11.65
2019-03-04T15:41:13.780Z,11.41
2019-03-04T15:43:45.461Z,11.36
2019-03-04T15:46:15.569Z,11.29
2019-03-04T15:48:45.770Z,10.39
2019-03-04T15:51:22.056Z,9.18
2019-03-04T15:53:52.358Z,8.43
2019-03-04T15:56:22.459Z,7.97
2019-03-04T15:58:52.606Z,7.58
2019-03-04T16:01:23.403Z,7.27
2019-03-04T16:03:54.145Z,7.01
2019-03-04T16:06:24.821Z,6.85
2019-03-04T16:08:55.207Z,6.74
2019-03-04T16:11:25.433Z,6.51
2019-03-04T16:13:56.304Z,6.33
2019-03-04T16:16:27.284Z,6.24
2019-03-04T16:18:57.501Z,6.14
2019-03-04T16:21:28.556Z,6.01
2019-03-04T16:23:58.864Z,5.97
2019-03-04T16:26:29.020Z,5.93
2019-03-04T16:28:59.572Z,5.90
2019-03-04T16:31:29.855Z,5.94
2019-03-04T16:34:00.012Z,5.94
2019-03-04T16:36:32.357Z,5.86
2019-03-04T16:39:04.650Z,5.84
2019-03-04T16:41:36.955Z,5.77
2019-03-04T16:44:08.096Z,5.75
2019-03-04T16:46:38.750Z,5.71
2019-03-04T16:49:09.281Z,5.71
2019-03-04T16:51:39.582Z,5.72
2019-03-04T16:54:09.778Z,5.77
2019-03-04T16:56:39.959Z,5.76
2019-03-04T16:59:10.405Z,5.76
2019-03-04T17:01:40.817Z,5.86
2019-03-04T17:04:11.533Z,5.99
2019-03-04T17:06:41.632Z,5.99
2019-03-04T17:09:17.883Z,5.96
2019-03-04T17:11:48.275Z,5.91
2019-03-04T17:14:18.811Z,5.85
2019-03-04T17:16:49.347Z,5.80
2019-03-04T17:19:55.143Z,5.73
2019-03-04T17:22:25.920Z,5.69
2019-03-04T17:24:57.715Z,5.63
2019-03-04T17:27:28.456Z,5.58
2019-03-04T17:29:58.590Z,5.52
2019-03-04T17:32:30.178Z,5.51
2019-03-04T17:35:00.319Z,5.49
2019-03-04T17:37:30.566Z,5.47
2019-03-04T17:40:00.716Z,5.46
2019-03-04T17:42:31.529Z,5.44
2019-03-04T17:45:01.710Z,5.38
2019-03-04T17:47:31.869Z,5.42
2019-03-04T17:50:01.952Z,5.42
2019-03-04T17:52:32.158Z,5.39
2019-03-04T17:55:02.600Z,5.36
2019-03-04T17:57:32.719Z,5.26
2019-03-04T18:00:02.881Z,5.26
2019-03-04T18:02:33.052Z,5.23
2019-03-04T18:05:03.551Z,5.33
2019-03-04T18:07:33.828Z,5.28
2019-03-04T18:10:04.300Z,5.22
2019-03-04T18:12:34.906Z,5.19
2019-03-04T18:15:07.101Z,5.16
2019-03-04T18:17:37.323Z,5.08
2019-03-04T18:20:09.590Z,5.02
2019-03-04T18:22:41.533Z,5.05
2019-03-04T18:25:22.427Z,4.87
2019-03-04T18:27:58.958Z,4.80
2019-03-04T18:31:10.147Z,4.78
2019-03-04T18:34:18.790Z,4.79
2019-03-04T18:37:07.511Z,4.73
2019-03-04T18:40:39.648Z,4.78
2019-03-04T18:43:38.995Z,4.93
2019-03-04T18:46:38.895Z,4.91
2019-03-04T18:49:09.148Z,4.96
2019-03-04T18:51:42.867Z,4.96
2019-03-04T18:54:18.702Z,4.90
2019-03-04T18:56:50.897Z,4.92
2019-03-04T18:59:24.294Z,5.03
2019-03-04T19:01:54.655Z,5.05
2019-03-04T19:04:24.988Z,5.06
2019-03-04T19:06:59.095Z,5.02
2019-03-04T19:09:30.787Z,5.07
2019-03-04T19:12:01.162Z,5.17
2019-03-04T19:14:33.567Z,5.20
2019-03-04T19:17:04.009Z,5.12
2019-03-04T19:19:34.216Z,5.18
2019-03-04T19:22:04.499Z,5.22
2019-03-04T19:24:35.536Z,5.32
2019-03-04T19:27:05.788Z,5.40
2019-03-04T19:29:40.568Z,5.43
2019-03-04T19:32:30.854Z,5.47
2019-03-04T19:35:00.978Z,5.57
2019-03-04T19:37:31.545Z,5.58
2019-03-04T19:40:02.117Z,5.65
2019-03-04T19:42:32.294Z,5.71
2019-03-04T19:45:02.628Z,5.61
2019-03-04T19:47:33.597Z,5.58
2019-03-04T19:50:12.237Z,5.54
2019-03-04T19:52:42.719Z,5.51
2019-03-04T19:55:14.212Z,5.42
2019-03-04T19:57:55.061Z,5.38
2019-03-04T20:00:35.079Z,5.35
2019-03-04T20:03:06.240Z,5.44
2019-03-04T20:05:43.732Z,5.35
2019-03-04T20:08:14.661Z,5.28
2019-03-04T20:10:48.820Z,5.16
2019-03-04T20:13:20.253Z,5.06
2019-03-04T20:15:53.949Z,5.00
2019-03-04T20:18:32.346Z,4.86
2019-03-04T20:21:03.564Z,4.72
2019-03-04T20:23:34.227Z,4.65
2019-03-04T20:26:05.079Z,4.49
2019-03-04T20:28:36.645Z,4.42
2019-03-04T20:31:08.579Z,4.35
2019-03-04T20:33:48.806Z,4.30
2019-03-04T20:36:19.998Z,4.33
2019-03-04T20:38:50.906Z,4.24
2019-03-04T20:41:34.778Z,4.20
2019-03-04T20:44:06.834Z,4.18
2019-03-04T20:46:37.639Z,4.14
2019-03-04T20:49:07.784Z,4.07
2019-03-04T20:51:41.229Z,4.13
2019-03-04T20:54:11.340Z,4.06
2019-03-04T20:56:41.511Z,4.11
2019-03-04T20:59:11.585Z,4.08
2019-03-04T21:01:43.488Z,4.10
2019-03-04T21:04:13.745Z,4.08
2019-03-04T21:06:43.872Z,4.08
2019-03-04T21:09:15.585Z,4.09
2019-03-04T21:11:45.960Z,4.06
2019-03-04T21:14:16.099Z,4.16
2019-03-04T21:16:46.335Z,4.12
2019-03-04T21:19:17.744Z,4.08
2019-03-04T21:21:48.247Z,4.19
2019-03-04T21:24:20.261Z,4.21
2019-03-04T21:26:51.027Z,4.23
2019-03-04T21:29:54.376Z,4.19
2019-03-04T21:32:53.048Z,4.21
2019-03-04T21:36:07.006Z,4.21
2019-03-04T21:38:37.163Z,4.22
2019-03-04T21:41:38.666Z,4.25
2019-03-04T21:44:43.133Z,4.30
2019-03-04T21:47:30.478Z,4.25
2019-03-04T21:50:00.666Z,4.34
2019-03-04T21:52:50.148Z,4.30
2019-03-04T21:55:36.937Z,4.32
2019-03-04T21:58:07.703Z,4.29
2019-03-04T22:00:41.450Z,4.32
2019-03-04T22:03:26.262Z,4.38
2019-03-04T22:05:56.870Z,4.38
2019-03-04T22:08:35.547Z,4.44
2019-03-04T22:11:06.986Z,4.43
2019-03-04T22:13:37.501Z,4.46
2019-03-04T22:16:08.180Z,4.52
2019-03-04T22:18:38.513Z,4.51
2019-03-04T22:21:16.549Z,4.58
2019-03-04T22:23:40.958Z,4.55
2019-03-04T22:26:11.185Z,4.47
2019-03-04T22:28:41.371Z,4.45
2019-03-04T22:31:11.784Z,4.47
2019-03-04T22:33:42.015Z,4.42
2019-03-04T22:36:12.521Z,4.45
2019-03-04T22:38:42.733Z,4.50
2019-03-04T22:41:13.873Z,4.61
2019-03-04T22:43:44.106Z,4.62
2019-03-04T22:46:14.317Z,4.63
2019-03-04T22:48:44.852Z,4.52
2019-03-04T22:51:15.480Z,4.52
2019-03-04T22:53:45.676Z,4.47
2019-03-04T22:56:15.870Z,4.40
2019-03-04T22:58:45.947Z,4.38
2019-03-04T23:01:37.866Z,4.19
2019-03-04T23:04:19.461Z,4.01
2019-03-04T23:06:58.838Z,4.01
2019-03-04T23:09:30.868Z,3.87
2019-03-04T23:12:13.103Z,3.71
2019-03-04T23:14:43.422Z,3.59
2019-03-04T23:17:13.550Z,3.52
2019-03-04T23:19:46.063Z,3.38
2019-03-04T23:22:16.202Z,3.31
2019-03-04T23:24:46.338Z,3.30
2019-03-04T23:27:16.498Z,3.22
2019-03-04T23:29:46.958Z,3.26
2019-03-04T23:32:17.133Z,3.20
2019-03-04T23:34:47.268Z,3.13
2019-03-04T23:37:19.570Z,3.09
2019-03-04T23:39:49.676Z,3.05
2019-03-04T23:42:19.845Z,3.09
2019-03-04T23:44:56.227Z,3.20
2019-03-04T23:47:26.363Z,3.15
2019-03-04T23:50:13.449Z,3.19
2019-03-04T23:52:43.847Z,3.19
2019-03-04T23:55:14.485Z,3.10
2019-03-04T23:57:44.632Z,3.00
